NEA1413 KCLE-CYOW
Flight info
| Callsign | NEA1413 |
|---|---|
| Flight time | 1h 2m |
| Altitude | 37000 |
| Route | PFLYD1 PATRC DCT AVOLA DCT DEDKI DCT ELSUB CAPTL5 |
| Aircraft | A319/M-SDE3FGHIRWY/LB1 |
Departure
| Time | 2026-05-07 20:38 |
|---|---|
| Airport | Cleveland Hopkins International Airport (KCLE) |
Arrival
| Time | 2026-05-07 21:40 |
|---|---|
| Airport | Ottawa Macdonald-Cartier International Airport (CYOW) |
| Time | Latitude | Longitude | Altitude | Speed | Heading |
|---|---|---|---|---|---|
| 2026-05-07 20:07 | 41.40731 | -81.84094 | 761 ft | 0 kts | 292° |
| 2026-05-07 20:20 | 41.40722 | -81.84066 | 765 ft | 4 kts | 292° |
| 2026-05-07 20:20 | 41.40714 | -81.84039 | 765 ft | 4 kts | 272° |
| 2026-05-07 20:20 | 41.40721 | -81.84008 | 765 ft | 4 kts | 224° |
| 2026-05-07 20:21 | 41.40743 | -81.83987 | 764 ft | 4 kts | 211° |
| 2026-05-07 20:21 | 41.40748 | -81.83983 | 763 ft | 0 kts | 212° |
| 2026-05-07 20:23 | 41.40742 | -81.83988 | 763 ft | 4 kts | 212° |
| 2026-05-07 20:24 | 41.40705 | -81.84019 | 765 ft | 8 kts | 212° |
| 2026-05-07 20:24 | 41.40650 | -81.84065 | 765 ft | 11 kts | 212° |
| 2026-05-07 20:24 | 41.40620 | -81.84099 | 765 ft | 1 kts | 246° |
| 2026-05-07 20:24 | 41.40731 | -81.84094 | 765 ft | 12 kts | 292° |
| 2026-05-07 20:31 | 41.40726 | -81.84078 | 763 ft | 4 kts | 292° |
| 2026-05-07 20:32 | 41.40717 | -81.84051 | 763 ft | 4 kts | 286° |
| 2026-05-07 20:32 | 41.40716 | -81.84018 | 763 ft | 4 kts | 239° |
| 2026-05-07 20:32 | 41.40734 | -81.83994 | 763 ft | 4 kts | 211° |
| 2026-05-07 20:32 | 41.40748 | -81.83983 | 763 ft | 0 kts | 212° |
| 2026-05-07 20:34 | 41.40721 | -81.84005 | 763 ft | 11 kts | 212° |
| 2026-05-07 20:35 | 41.40628 | -81.84089 | 765 ft | 18 kts | 227° |
| 2026-05-07 20:35 | 41.40610 | -81.84273 | 765 ft | 23 kts | 271° |
| 2026-05-07 20:35 | 41.40685 | -81.84430 | 765 ft | 24 kts | 360° |
| 2026-05-07 20:35 | 41.40867 | -81.84425 | 765 ft | 27 kts | 14° |
| 2026-05-07 20:36 | 41.41055 | -81.84413 | 763 ft | 30 kts | 326° |
| 2026-05-07 20:36 | 41.41207 | -81.84491 | 763 ft | 25 kts | 38° |
| 2026-05-07 20:36 | 41.41323 | -81.84309 | 763 ft | 27 kts | 50° |
| 2026-05-07 20:36 | 41.41453 | -81.84146 | 763 ft | 23 kts | 358° |
| 2026-05-07 20:37 | 41.41498 | -81.84265 | 764 ft | 16 kts | 229° |
| 2026-05-07 20:37 | 41.41379 | -81.84445 | 765 ft | 47 kts | 230° |
| 2026-05-07 20:37 | 41.41039 | -81.84988 | 766 ft | 103 kts | 230° |
| 2026-05-07 20:37 | 41.40464 | -81.85899 | 784 ft | 151 kts | 231° |
| 2026-05-07 20:38 | 41.39824 | -81.86919 | 1488 ft | 142 kts | 237° |
| 2026-05-07 20:38 | 41.39189 | -81.87972 | 2166 ft | 145 kts | 244° |
| 2026-05-07 20:38 | 41.38846 | -81.89260 | 2618 ft | 159 kts | 264° |
| 2026-05-07 20:38 | 41.38923 | -81.90740 | 3065 ft | 168 kts | 285° |
| 2026-05-07 20:39 | 41.39197 | -81.92361 | 3498 ft | 188 kts | 281° |
| 2026-05-07 20:39 | 41.39428 | -81.94172 | 3921 ft | 213 kts | 279° |
| 2026-05-07 20:39 | 41.39678 | -81.96227 | 4460 ft | 237 kts | 279° |
| 2026-05-07 20:39 | 41.39949 | -81.98451 | 5305 ft | 247 kts | 279° |
| 2026-05-07 20:40 | 41.40226 | -82.00716 | 6380 ft | 249 kts | 279° |
| 2026-05-07 20:40 | 41.40508 | -82.03000 | 7399 ft | 251 kts | 279° |
| 2026-05-07 20:40 | 41.40797 | -82.05308 | 8399 ft | 254 kts | 278° |
| 2026-05-07 20:40 | 41.41096 | -82.07673 | 9437 ft | 257 kts | 278° |
| 2026-05-07 20:41 | 41.41440 | -82.10013 | 10405 ft | 260 kts | 286° |
| 2026-05-07 20:41 | 41.42377 | -82.12054 | 11295 ft | 269 kts | 311° |
| 2026-05-07 20:41 | 41.44001 | -82.13385 | 12202 ft | 285 kts | 335° |
| 2026-05-07 20:41 | 41.46044 | -82.13622 | 12900 ft | 314 kts | 1° |
| 2026-05-07 20:42 | 41.48184 | -82.12475 | 13204 ft | 353 kts | 29° |
| 2026-05-07 20:42 | 41.50135 | -82.10372 | 13825 ft | 367 kts | 38° |
| 2026-05-07 20:42 | 41.51951 | -82.07929 | 14509 ft | 374 kts | 43° |
| 2026-05-07 20:42 | 41.53706 | -82.05334 | 15187 ft | 380 kts | 44° |
| 2026-05-07 20:43 | 41.55476 | -82.02689 | 15859 ft | 384 kts | 44° |
| 2026-05-07 20:43 | 41.57296 | -82.00048 | 16522 ft | 388 kts | 42° |
| 2026-05-07 20:43 | 41.59164 | -81.97416 | 17200 ft | 394 kts | 43° |
| 2026-05-07 20:43 | 41.60832 | -81.94457 | 17871 ft | 403 kts | 53° |
| 2026-05-07 20:44 | 41.62511 | -81.91445 | 18482 ft | 405 kts | 45° |
| 2026-05-07 20:44 | 41.64422 | -81.88661 | 19024 ft | 408 kts | 40° |
| 2026-05-07 20:44 | 41.66468 | -81.86007 | 19552 ft | 412 kts | 37° |
| 2026-05-07 20:44 | 41.68585 | -81.83379 | 20082 ft | 418 kts | 37° |
| 2026-05-07 20:45 | 41.70724 | -81.80707 | 20674 ft | 423 kts | 38° |
| 2026-05-07 20:45 | 41.72859 | -81.77962 | 21255 ft | 428 kts | 39° |
| 2026-05-07 20:45 | 41.74986 | -81.75135 | 21779 ft | 434 kts | 39° |
| 2026-05-07 20:45 | 41.77117 | -81.72229 | 22284 ft | 440 kts | 40° |
| 2026-05-07 20:46 | 41.79260 | -81.69266 | 22786 ft | 446 kts | 40° |
| 2026-05-07 20:46 | 41.81426 | -81.66260 | 23290 ft | 451 kts | 40° |
| 2026-05-07 20:46 | 41.83627 | -81.63216 | 23648 ft | 459 kts | 40° |
| 2026-05-07 20:46 | 41.85870 | -81.60130 | 24015 ft | 465 kts | 40° |
| 2026-05-07 20:47 | 41.88146 | -81.57010 | 24416 ft | 469 kts | 39° |
| 2026-05-07 20:47 | 41.90434 | -81.53876 | 24948 ft | 471 kts | 40° |
| 2026-05-07 20:47 | 41.92731 | -81.50720 | 25429 ft | 474 kts | 40° |
| 2026-05-07 20:47 | 41.95041 | -81.47545 | 25836 ft | 477 kts | 39° |
| 2026-05-07 20:48 | 41.97375 | -81.44341 | 26226 ft | 482 kts | 39° |
| 2026-05-07 20:48 | 41.99726 | -81.41109 | 26608 ft | 486 kts | 39° |
| 2026-05-07 20:48 | 42.02083 | -81.37825 | 26984 ft | 491 kts | 40° |
| 2026-05-07 20:48 | 42.04403 | -81.34417 | 27350 ft | 497 kts | 42° |
| 2026-05-07 20:49 | 42.06688 | -81.30898 | 27734 ft | 502 kts | 43° |
| 2026-05-07 20:49 | 42.08955 | -81.27300 | 28156 ft | 505 kts | 44° |
| 2026-05-07 20:49 | 42.11223 | -81.23660 | 28533 ft | 510 kts | 44° |
| 2026-05-07 20:49 | 42.13518 | -81.19998 | 28893 ft | 513 kts | 44° |
| 2026-05-07 20:50 | 42.15845 | -81.16324 | 29246 ft | 517 kts | 43° |
| 2026-05-07 20:50 | 42.18204 | -81.12640 | 29603 ft | 521 kts | 43° |
| 2026-05-07 20:50 | 42.20591 | -81.08935 | 29947 ft | 525 kts | 42° |
| 2026-05-07 20:50 | 42.22997 | -81.05211 | 30252 ft | 528 kts | 42° |
| 2026-05-07 20:51 | 42.25413 | -81.01469 | 30568 ft | 531 kts | 43° |
| 2026-05-07 20:51 | 42.27834 | -80.97702 | 31008 ft | 530 kts | 44° |
| 2026-05-07 20:51 | 42.30239 | -80.93936 | 31425 ft | 530 kts | 44° |
| 2026-05-07 20:51 | 42.32640 | -80.90159 | 31748 ft | 531 kts | 44° |
| 2026-05-07 20:52 | 42.35054 | -80.86354 | 31980 ft | 535 kts | 44° |
| 2026-05-07 20:52 | 42.37481 | -80.82530 | 32296 ft | 536 kts | 44° |
| 2026-05-07 20:52 | 42.39906 | -80.78703 | 32731 ft | 535 kts | 44° |
| 2026-05-07 20:52 | 42.42322 | -80.74884 | 33180 ft | 533 kts | 44° |
| 2026-05-07 20:53 | 42.44727 | -80.71081 | 33636 ft | 532 kts | 44° |
| 2026-05-07 20:53 | 42.47131 | -80.67280 | 34078 ft | 530 kts | 44° |
| 2026-05-07 20:53 | 42.49526 | -80.63491 | 34458 ft | 529 kts | 44° |
| 2026-05-07 20:53 | 42.51909 | -80.59715 | 34827 ft | 528 kts | 44° |
| 2026-05-07 20:54 | 42.54291 | -80.55939 | 35173 ft | 527 kts | 44° |
| 2026-05-07 20:54 | 42.56671 | -80.52160 | 35485 ft | 526 kts | 44° |
| 2026-05-07 20:54 | 42.59048 | -80.48378 | 35779 ft | 527 kts | 44° |
| 2026-05-07 20:54 | 42.61424 | -80.44587 | 36095 ft | 527 kts | 44° |
| 2026-05-07 20:55 | 42.63789 | -80.40805 | 36499 ft | 525 kts | 44° |
| 2026-05-07 20:55 | 42.66149 | -80.37029 | 36837 ft | 523 kts | 44° |
| 2026-05-07 20:55 | 42.68506 | -80.33265 | 36944 ft | 522 kts | 44° |
| 2026-05-07 20:56 | 42.73181 | -80.25785 | 36953 ft | 518 kts | 44° |
| 2026-05-07 20:56 | 42.77842 | -80.18308 | 36955 ft | 518 kts | 44° |
| 2026-05-07 20:57 | 42.82495 | -80.10817 | 36953 ft | 518 kts | 45° |
| 2026-05-07 20:57 | 42.87134 | -80.03318 | 36948 ft | 517 kts | 45° |
| 2026-05-07 20:58 | 42.91765 | -79.95810 | 36936 ft | 517 kts | 45° |
| 2026-05-07 20:58 | 42.96394 | -79.88291 | 36930 ft | 517 kts | 45° |
| 2026-05-07 20:59 | 43.01021 | -79.80771 | 36962 ft | 517 kts | 45° |
| 2026-05-07 20:59 | 43.05647 | -79.73238 | 36929 ft | 517 kts | 45° |
| 2026-05-07 21:00 | 43.10257 | -79.65693 | 36949 ft | 517 kts | 45° |
| 2026-05-07 21:00 | 43.14857 | -79.58131 | 36944 ft | 517 kts | 45° |
| 2026-05-07 21:01 | 43.19453 | -79.50577 | 36957 ft | 514 kts | 46° |
| 2026-05-07 21:01 | 43.24020 | -79.43049 | 36949 ft | 513 kts | 46° |
| 2026-05-07 21:02 | 43.28522 | -79.35619 | 36915 ft | 513 kts | 46° |
| 2026-05-07 21:02 | 43.33078 | -79.28062 | 36953 ft | 514 kts | 46° |
| 2026-05-07 21:03 | 43.37628 | -79.20496 | 36949 ft | 513 kts | 46° |
| 2026-05-07 21:03 | 43.42202 | -79.12877 | 36955 ft | 513 kts | 46° |
| 2026-05-07 21:04 | 43.46742 | -79.05300 | 36930 ft | 513 kts | 46° |
| 2026-05-07 21:04 | 43.51294 | -78.97732 | 36979 ft | 513 kts | 45° |
| 2026-05-07 21:05 | 43.55277 | -78.91629 | 36970 ft | 511 kts | 42° |
| 2026-05-07 21:05 | 43.60186 | -78.84657 | 36960 ft | 509 kts | 41° |
| 2026-05-07 21:06 | 43.65127 | -78.77647 | 36955 ft | 510 kts | 41° |
| 2026-05-07 21:06 | 43.69890 | -78.70275 | 36976 ft | 514 kts | 51° |
| 2026-05-07 21:07 | 43.73999 | -78.62178 | 36950 ft | 514 kts | 51° |
| 2026-05-07 21:07 | 43.78143 | -78.54116 | 36948 ft | 514 kts | 51° |
| 2026-05-07 21:08 | 43.82295 | -78.46060 | 36943 ft | 514 kts | 51° |
| 2026-05-07 21:08 | 43.86431 | -78.37997 | 36972 ft | 513 kts | 51° |
| 2026-05-07 21:09 | 43.90555 | -78.29931 | 36963 ft | 512 kts | 52° |
| 2026-05-07 21:09 | 43.94652 | -78.21852 | 36948 ft | 512 kts | 52° |
| 2026-05-07 21:10 | 43.98743 | -78.13772 | 36944 ft | 511 kts | 52° |
| 2026-05-07 21:10 | 44.02831 | -78.05700 | 36955 ft | 511 kts | 52° |
| 2026-05-07 21:11 | 44.06911 | -77.97632 | 36938 ft | 510 kts | 52° |
| 2026-05-07 21:11 | 44.13067 | -77.85393 | 35306 ft | 523 kts | 52° |
| 2026-05-07 21:12 | 44.15117 | -77.81309 | 34695 ft | 525 kts | 52° |
| 2026-05-07 21:12 | 44.17162 | -77.77224 | 34286 ft | 520 kts | 52° |
| 2026-05-07 21:12 | 44.19232 | -77.73085 | 33675 ft | 520 kts | 52° |
| 2026-05-07 21:12 | 44.21294 | -77.68954 | 33099 ft | 518 kts | 52° |
| 2026-05-07 21:13 | 44.23339 | -77.64838 | 32536 ft | 515 kts | 52° |
| 2026-05-07 21:13 | 44.25375 | -77.60739 | 31965 ft | 513 kts | 52° |
| 2026-05-07 21:13 | 44.27403 | -77.56665 | 31405 ft | 511 kts | 52° |
| 2026-05-07 21:13 | 44.29426 | -77.52601 | 30846 ft | 508 kts | 52° |
| 2026-05-07 21:14 | 44.31460 | -77.48510 | 30464 ft | 503 kts | 52° |
| 2026-05-07 21:14 | 44.33435 | -77.44515 | 30042 ft | 497 kts | 52° |
| 2026-05-07 21:14 | 44.35394 | -77.40549 | 29480 ft | 493 kts | 52° |
| 2026-05-07 21:14 | 44.37323 | -77.36635 | 28732 ft | 485 kts | 52° |
| 2026-05-07 21:15 | 44.39216 | -77.32791 | 28038 ft | 476 kts | 52° |
| 2026-05-07 21:15 | 44.41054 | -77.29046 | 27733 ft | 458 kts | 52° |
| 2026-05-07 21:15 | 44.42839 | -77.25403 | 27269 ft | 453 kts | 52° |
| 2026-05-07 21:15 | 44.44646 | -77.21724 | 26804 ft | 451 kts | 52° |
| 2026-05-07 21:16 | 44.46569 | -77.18308 | 26403 ft | 442 kts | 42° |
| 2026-05-07 21:16 | 44.48803 | -77.15418 | 26007 ft | 435 kts | 36° |
| 2026-05-07 21:16 | 44.51078 | -77.12656 | 25587 ft | 431 kts | 36° |
| 2026-05-07 21:16 | 44.53333 | -77.09907 | 25177 ft | 429 kts | 36° |
| 2026-05-07 21:17 | 44.55576 | -77.07171 | 24761 ft | 426 kts | 36° |
| 2026-05-07 21:17 | 44.57811 | -77.04444 | 24320 ft | 425 kts | 36° |
| 2026-05-07 21:17 | 44.60034 | -77.01731 | 23892 ft | 423 kts | 36° |
| 2026-05-07 21:17 | 44.62251 | -76.99020 | 23445 ft | 422 kts | 36° |
| 2026-05-07 21:18 | 44.64433 | -76.96283 | 22990 ft | 421 kts | 41° |
| 2026-05-07 21:18 | 44.66311 | -76.93147 | 22532 ft | 421 kts | 50° |
| 2026-05-07 21:18 | 44.68035 | -76.89845 | 22120 ft | 416 kts | 50° |
| 2026-05-07 21:18 | 44.69736 | -76.86571 | 21609 ft | 414 kts | 50° |
| 2026-05-07 21:19 | 44.71417 | -76.83321 | 21213 ft | 408 kts | 50° |
| 2026-05-07 21:19 | 44.73077 | -76.80110 | 20671 ft | 402 kts | 50° |
| 2026-05-07 21:19 | 44.74702 | -76.76960 | 20240 ft | 393 kts | 50° |
| 2026-05-07 21:19 | 44.76293 | -76.73875 | 19814 ft | 385 kts | 50° |
| 2026-05-07 21:20 | 44.77851 | -76.70855 | 19390 ft | 378 kts | 50° |
| 2026-05-07 21:20 | 44.79378 | -76.67887 | 18968 ft | 371 kts | 50° |
| 2026-05-07 21:20 | 44.80881 | -76.64964 | 18570 ft | 366 kts | 50° |
| 2026-05-07 21:20 | 44.82381 | -76.62046 | 18148 ft | 361 kts | 50° |
| 2026-05-07 21:21 | 44.83829 | -76.59240 | 17723 ft | 357 kts | 50° |
| 2026-05-07 21:21 | 44.85286 | -76.56418 | 17416 ft | 356 kts | 50° |
| 2026-05-07 21:21 | 44.86740 | -76.53592 | 17092 ft | 355 kts | 50° |
| 2026-05-07 21:21 | 44.88185 | -76.50774 | 16703 ft | 353 kts | 50° |
| 2026-05-07 21:22 | 44.89617 | -76.47979 | 16311 ft | 350 kts | 50° |
| 2026-05-07 21:22 | 44.91038 | -76.45207 | 15921 ft | 348 kts | 50° |
| 2026-05-07 21:22 | 44.92447 | -76.42453 | 15537 ft | 345 kts | 50° |
| 2026-05-07 21:22 | 44.93849 | -76.39713 | 15158 ft | 343 kts | 50° |
| 2026-05-07 21:23 | 44.95246 | -76.37007 | 14772 ft | 340 kts | 49° |
| 2026-05-07 21:23 | 44.96671 | -76.34359 | 14404 ft | 337 kts | 48° |
| 2026-05-07 21:23 | 44.98128 | -76.31716 | 14022 ft | 335 kts | 47° |
| 2026-05-07 21:23 | 44.99560 | -76.29133 | 13647 ft | 333 kts | 48° |
| 2026-05-07 21:24 | 45.00979 | -76.26562 | 13243 ft | 330 kts | 48° |
| 2026-05-07 21:24 | 45.02375 | -76.24014 | 12877 ft | 326 kts | 48° |
| 2026-05-07 21:24 | 45.03754 | -76.21487 | 12517 ft | 323 kts | 49° |
| 2026-05-07 21:24 | 45.05118 | -76.18980 | 12161 ft | 320 kts | 49° |
| 2026-05-07 21:25 | 45.06468 | -76.16490 | 11806 ft | 318 kts | 49° |
| 2026-05-07 21:25 | 45.07808 | -76.14015 | 11450 ft | 316 kts | 49° |
| 2026-05-07 21:25 | 45.09136 | -76.11560 | 11130 ft | 313 kts | 49° |
| 2026-05-07 21:25 | 45.10459 | -76.09118 | 10873 ft | 311 kts | 49° |
| 2026-05-07 21:26 | 45.11771 | -76.06696 | 10634 ft | 309 kts | 49° |
| 2026-05-07 21:26 | 45.13068 | -76.04305 | 10387 ft | 303 kts | 49° |
| 2026-05-07 21:26 | 45.14344 | -76.01942 | 10071 ft | 301 kts | 49° |
| 2026-05-07 21:26 | 45.15619 | -75.99577 | 9707 ft | 302 kts | 49° |
| 2026-05-07 21:27 | 45.16890 | -75.97216 | 9312 ft | 301 kts | 50° |
| 2026-05-07 21:27 | 45.18157 | -75.94858 | 8937 ft | 300 kts | 50° |
| 2026-05-07 21:27 | 45.19433 | -75.92477 | 8595 ft | 299 kts | 50° |
| 2026-05-07 21:27 | 45.20626 | -75.90066 | 8246 ft | 300 kts | 60° |
| 2026-05-07 21:28 | 45.21332 | -75.87345 | 7864 ft | 301 kts | 78° |
| 2026-05-07 21:28 | 45.21425 | -75.84410 | 7473 ft | 298 kts | 97° |
| 2026-05-07 21:28 | 45.20921 | -75.81589 | 7087 ft | 293 kts | 110° |
| 2026-05-07 21:28 | 45.20276 | -75.78874 | 6710 ft | 289 kts | 110° |
| 2026-05-07 21:29 | 45.19708 | -75.76122 | 6348 ft | 286 kts | 101° |
| 2026-05-07 21:29 | 45.19616 | -75.73356 | 5996 ft | 285 kts | 84° |
| 2026-05-07 21:29 | 45.20056 | -75.70596 | 5629 ft | 283 kts | 68° |
| 2026-05-07 21:29 | 45.20945 | -75.68173 | 5335 ft | 279 kts | 54° |
| 2026-05-07 21:30 | 45.21978 | -75.65899 | 5196 ft | 270 kts | 54° |
| 2026-05-07 21:30 | 45.22975 | -75.63678 | 5027 ft | 264 kts | 54° |
| 2026-05-07 21:30 | 45.23958 | -75.61478 | 4928 ft | 259 kts | 54° |
| 2026-05-07 21:30 | 45.24927 | -75.59318 | 4861 ft | 259 kts | 54° |
| 2026-05-07 21:31 | 45.25899 | -75.57159 | 4797 ft | 260 kts | 54° |
| 2026-05-07 21:31 | 45.26873 | -75.54997 | 4684 ft | 260 kts | 54° |
| 2026-05-07 21:31 | 45.27844 | -75.52837 | 4558 ft | 259 kts | 54° |
| 2026-05-07 21:31 | 45.28812 | -75.50678 | 4445 ft | 260 kts | 54° |
| 2026-05-07 21:32 | 45.29777 | -75.48513 | 4330 ft | 258 kts | 54° |
| 2026-05-07 21:32 | 45.30737 | -75.46359 | 4213 ft | 258 kts | 54° |
| 2026-05-07 21:32 | 45.31697 | -75.44207 | 4099 ft | 258 kts | 54° |
| 2026-05-07 21:32 | 45.32642 | -75.42102 | 3977 ft | 246 kts | 52° |
| 2026-05-07 21:33 | 45.33771 | -75.40411 | 3852 ft | 229 kts | 30° |
| 2026-05-07 21:33 | 45.35191 | -75.39597 | 3634 ft | 214 kts | 3° |
| 2026-05-07 21:33 | 45.36604 | -75.39730 | 3499 ft | 195 kts | 337° |
| 2026-05-07 21:33 | 45.37737 | -75.40552 | 3390 ft | 175 kts | 317° |
| 2026-05-07 21:34 | 45.38515 | -75.41765 | 3295 ft | 158 kts | 301° |
| 2026-05-07 21:34 | 45.39123 | -75.42985 | 3213 ft | 143 kts | 302° |
| 2026-05-07 21:34 | 45.39669 | -75.44072 | 3137 ft | 131 kts | 302° |
| 2026-05-07 21:34 | 45.40161 | -75.45116 | 3053 ft | 125 kts | 293° |
| 2026-05-07 21:35 | 45.40342 | -75.46311 | 2985 ft | 125 kts | 270° |
| 2026-05-07 21:35 | 45.40127 | -75.47504 | 2859 ft | 126 kts | 247° |
| 2026-05-07 21:35 | 45.39657 | -75.48559 | 2723 ft | 125 kts | 242° |
| 2026-05-07 21:35 | 45.39189 | -75.49599 | 2592 ft | 123 kts | 243° |
| 2026-05-07 21:36 | 45.38729 | -75.50629 | 2469 ft | 123 kts | 241° |
| 2026-05-07 21:36 | 45.38270 | -75.51658 | 2343 ft | 124 kts | 242° |
| 2026-05-07 21:36 | 45.37812 | -75.52682 | 2214 ft | 123 kts | 243° |
| 2026-05-07 21:36 | 45.37355 | -75.53705 | 2091 ft | 123 kts | 243° |
| 2026-05-07 21:37 | 45.37050 | -75.54385 | 1997 ft | 123 kts | 242° |
| 2026-05-07 21:37 | 45.36592 | -75.55406 | 1849 ft | 124 kts | 242° |
| 2026-05-07 21:37 | 45.36131 | -75.56430 | 1695 ft | 121 kts | 244° |
| 2026-05-07 21:37 | 45.35676 | -75.57440 | 1534 ft | 121 kts | 244° |
| 2026-05-07 21:38 | 45.35225 | -75.58446 | 1357 ft | 122 kts | 242° |
| 2026-05-07 21:38 | 45.34757 | -75.59467 | 1167 ft | 126 kts | 239° |
| 2026-05-07 21:38 | 45.34292 | -75.60491 | 1029 ft | 122 kts | 242° |
| 2026-05-07 21:38 | 45.33840 | -75.61502 | 914 ft | 120 kts | 245° |
| 2026-05-07 21:39 | 45.33389 | -75.62529 | 781 ft | 124 kts | 242° |
| 2026-05-07 21:39 | 45.32928 | -75.63559 | 571 ft | 122 kts | 243° |
| 2026-05-07 21:39 | 45.32475 | -75.64575 | 418 ft | 121 kts | 242° |
| 2026-05-07 21:39 | 45.32055 | -75.65523 | 382 ft | 99 kts | 237° |
| 2026-05-07 21:40 | 45.31773 | -75.66143 | 384 ft | 50 kts | 237° |
| 2026-05-07 21:40 | 45.31651 | -75.66410 | 386 ft | 29 kts | 237° |
| 2026-05-07 21:40 | 45.31533 | -75.66675 | 384 ft | 33 kts | 238° |
| 2026-05-07 21:40 | 45.31407 | -75.66958 | 386 ft | 27 kts | 238° |
| 2026-05-07 21:41 | 45.31375 | -75.67132 | 388 ft | 15 kts | 317° |
| 2026-05-07 21:41 | 45.31484 | -75.67116 | 387 ft | 18 kts | 12° |
| 2026-05-07 21:41 | 45.31604 | -75.67027 | 384 ft | 22 kts | 60° |
| 2026-05-07 21:41 | 45.31689 | -75.66834 | 386 ft | 24 kts | 57° |
| 2026-05-07 21:42 | 45.31770 | -75.66654 | 387 ft | 19 kts | 57° |
| 2026-05-07 21:42 | 45.31864 | -75.66601 | 390 ft | 16 kts | 327° |
| 2026-05-07 21:42 | 45.31931 | -75.66740 | 391 ft | 19 kts | 307° |
| 2026-05-07 21:42 | 45.32024 | -75.66918 | 390 ft | 25 kts | 306° |
| 2026-05-07 21:43 | 45.32112 | -75.67091 | 387 ft | 18 kts | 306° |
| 2026-05-07 21:43 | 45.32201 | -75.67086 | 387 ft | 12 kts | 48° |
| 2026-05-07 21:43 | 45.32238 | -75.67046 | 386 ft | 5 kts | 36° |
| 2026-05-07 21:43 | 45.32254 | -75.67029 | 386 ft | 0 kts | 36° |
| 2026-05-07 21:44 | 45.32255 | -75.67028 | 386 ft | 0 kts | 36° |